Ashland, Massachusetts
Current Conditions -  °F | °C
As of 1:53 PM on Monday 20 Oct 2014 (Local Time) from KOWD Reporting Station
Clear Clear  
Wind Chill: 55°   Ceiling: Unl
Heat Index: 55°   Visibility: 10mi
Dew Point: 31°   Wind: 9mph
Humidity: 40%   Direction: 230°SW
Pressure: 29.98"   Gusts: NA
Location:  42.26°N, 71.46°W
Report Text: KOWD 201753Z 23008KT 170V270 10SM CLR 13/M01 A2998 RMK AO2 SLP151 T01281006 10133 20017 58026
Loading
Personal Weather Stations






























Interactive Weather Map
Tropical Storm Tracking
New forecast layout! Learn more

10-Day Weather Forecast

Advertisements
Track Severe Weather on mobile